Time;durP1;ratioP1;P1;durP2;ratioP2;P2;SDS_P1;SDS_P2;PMS_P1;PMS_P2;Temp;Humidity;BMP_temperature;BMP_pressure;BME280_temperature;BME280_humidity;BME280_pressure;Samples;Min_cycle;Max_cycle;Signal;HPM_P1;HPM_P2
2022/11/12 00:01:38;;;;;;;;;;;22.00;58.90;;;;;;1586267;74;695;-63
2022/11/12 00:03:40;;;;;;;;;;;22.00;58.70;;;;;;1585807;75;715;-63
2022/11/12 00:05:43;;;;;;;;;;;22.10;58.20;;;;;;1582633;74;682;-64
2022/11/12 00:07:45;;;;;;;;;;;22.10;58.10;;;;;;1575116;74;1148;-63
2022/11/12 00:09:47;;;;;;;;;;;22.10;58.10;;;;;;1588076;74;1456;-63
2022/11/12 00:11:49;;;;;;;;;;;22.10;58.10;;;;;;1586870;74;595;-63
2022/11/12 00:13:51;;;;;;;;;;;22.10;58.30;;;;;;1587362;74;1941;-62
2022/11/12 00:15:52;;;;;;;;;;;22.00;58.10;;;;;;1582584;73;1134;-63
2022/11/12 00:17:54;;;;;;;;;;;22.10;58.00;;;;;;1576051;74;731;-63
2022/11/12 00:19:56;;;;;;;;;;;22.10;58.00;;;;;;1587625;74;676;-63
2022/11/12 00:21:58;;;;;;;;;;;22.10;58.10;;;;;;1581807;74;685;-63
2022/11/12 00:24:00;;;;;;;;;;;22.10;58.10;;;;;;1578007;74;1704;-64
2022/11/12 00:26:02;;;;;;;;;;;22.10;58.20;;;;;;1585562;75;1177;-64
2022/11/12 00:28:05;;;;;;;;;;;22.10;58.10;;;;;;1579307;75;695;-63
2022/11/12 00:30:07;;;;;;;;;;;22.10;58.20;;;;;;1575210;74;999;-63
2022/11/12 00:32:09;;;;;;;;;;;22.10;58.10;;;;;;1576940;75;630;-63
2022/11/12 00:34:11;;;;;;;;;;;22.10;58.10;;;;;;1586439;74;1941;-63
2022/11/12 00:36:13;;;;;;;;;;;22.10;58.10;;;;;;1573690;75;1074;-63
2022/11/12 00:38:15;;;;;;;;;;;22.10;58.00;;;;;;1585786;74;1440;-63
2022/11/12 00:40:17;;;;;;;;;;;22.10;58.00;;;;;;1579938;75;692;-63
2022/11/12 00:42:19;;;;;;;;;;;22.10;58.10;;;;;;1574000;74;669;-63
2022/11/12 00:44:21;;;;;;;;;;;22.10;57.90;;;;;;1577302;74;734;-64
2022/11/12 00:46:22;;;;;;;;;;;22.10;58.00;;;;;;1581538;73;1249;-63
2022/11/12 00:48:24;;;;;;;;;;;22.10;58.00;;;;;;1569143;74;706;-62
2022/11/12 00:50:26;;;;;;;;;;;22.10;58.10;;;;;;1568909;73;1437;-63
2022/11/12 00:52:28;;;;;;;;;;;22.10;58.20;;;;;;1584073;74;702;-64
2022/11/12 00:54:30;;;;;;;;;;;22.10;58.10;;;;;;1573742;75;1936;-63
2022/11/12 00:56:32;;;;;;;;;;;22.10;58.10;;;;;;1586074;72;2123;-69
2022/11/12 00:58:34;;;;;;;;;;;22.10;58.20;;;;;;1551214;75;652;-70
2022/11/12 01:00:36;;;;;;;;;;;22.00;58.20;;;;;;1560382;75;609;-71
2022/11/12 01:02:38;;;;;;;;;;;22.00;58.30;;;;;;1554790;75;765;-72
2022/11/12 01:04:40;;;;;;;;;;;22.00;58.70;;;;;;1553552;75;1333;-70
2022/11/12 01:06:42;;;;;;;;;;;22.00;58.70;;;;;;1552795;75;1222;-70
2022/11/12 01:08:43;;;;;;;;;;;21.90;58.90;;;;;;1554857;75;809;-70
2022/11/12 01:10:45;;;;;;;;;;;22.00;58.80;;;;;;1550002;75;646;-69
2022/11/12 01:12:47;;;;;;;;;;;22.00;58.70;;;;;;1550698;76;725;-67
2022/11/12 01:14:49;;;;;;;;;;;21.90;58.90;;;;;;1558760;75;1943;-70
2022/11/12 01:16:51;;;;;;;;;;;21.90;59.00;;;;;;1546881;75;1164;-72
2022/11/12 01:18:53;;;;;;;;;;;21.90;59.10;;;;;;1562738;75;1551;-69
2022/11/12 01:20:57;;;;;;;;;;;21.90;59.20;;;;;;1552262;76;690;-71
2022/11/12 01:22:59;;;;;;;;;;;21.90;59.20;;;;;;1558566;76;720;-70
2022/11/12 01:25:01;;;;;;;;;;;21.90;59.20;;;;;;1550500;75;765;-70
2022/11/12 01:27:03;;;;;;;;;;;21.90;59.20;;;;;;1556048;74;1201;-68
2022/11/12 01:29:05;;;;;;;;;;;21.90;59.10;;;;;;1555021;75;707;-70
2022/11/12 01:31:11;;;;;;;;;;;22.00;59.10;;;;;;1555513;75;637;-70
2022/11/12 01:33:13;;;;;;;;;;;21.90;59.20;;;;;;1546201;75;1919;-70
2022/11/12 01:35:15;;;;;;;;;;;21.90;59.20;;;;;;1547864;75;675;-70
2022/11/12 01:37:16;;;;;;;;;;;21.90;59.20;;;;;;1551806;75;1171;-72
2022/11/12 01:39:18;;;;;;;;;;;21.90;59.10;;;;;;1546329;75;748;-70
2022/11/12 01:41:21;;;;;;;;;;;21.90;59.10;;;;;;1553451;76;705;-70
2022/11/12 01:43:23;;;;;;;;;;;21.90;59.20;;;;;;1557194;75;661;-70
2022/11/12 01:45:25;;;;;;;;;;;21.90;59.30;;;;;;1558977;75;664;-71
2022/11/12 01:47:28;;;;;;;;;;;21.90;59.20;;;;;;1555534;75;1459;-70
2022/11/12 01:49:44;;;;;;;;;;;21.90;59.30;;;;;;1554970;75;691;-69
2022/11/12 01:51:46;;;;;;;;;;;21.90;59.30;;;;;;1547307;75;679;-70
2022/11/12 01:53:49;;;;;;;;;;;21.90;59.40;;;;;;1551603;76;1940;-71
2022/11/12 01:55:51;;;;;;;;;;;21.90;59.30;;;;;;1555391;75;709;-70
2022/11/12 01:57:55;;;;;;;;;;;21.90;59.40;;;;;;1547934;75;1127;-68
2022/11/12 01:59:58;;;;;;;;;;;21.90;59.40;;;;;;1549307;75;1920;-71
2022/11/12 02:02:00;;;;;;;;;;;21.90;59.40;;;;;;1536346;76;1946;-74
2022/11/12 02:04:02;;;;;;;;;;;21.90;59.40;;;;;;1555885;75;724;-70
2022/11/12 02:06:06;;;;;;;;;;;22.00;59.30;;;;;;1551003;75;803;-68
2022/11/12 02:08:09;;;;;;;;;;;22.00;59.20;;;;;;1550262;75;1805;-70
2022/11/12 02:10:11;;;;;;;;;;;22.00;59.20;;;;;;1548703;75;1390;-71
2022/11/12 02:13:56;;;;;;;;;;;22.00;59.20;;;;;;1554677;75;810;-70
2022/11/12 02:14:16;;;;;;;;;;;22.00;59.20;;;;;;1550050;75;1909;-70
2022/11/12 02:16:18;;;;;;;;;;;22.00;59.20;;;;;;1554369;75;1454;-70
2022/11/12 02:18:20;;;;;;;;;;;21.90;59.30;;;;;;1553081;76;760;-70
2022/11/12 02:20:22;;;;;;;;;;;21.90;59.30;;;;;;1550469;76;670;-71
2022/11/12 02:22:24;;;;;;;;;;;22.00;59.40;;;;;;1560509;76;723;-71
2022/11/12 02:24:27;;;;;;;;;;;21.90;59.40;;;;;;1559741;75;736;-70
2022/11/12 02:26:31;;;;;;;;;;;21.90;59.50;;;;;;1555325;75;1158;-70
2022/11/12 02:28:33;;;;;;;;;;;21.90;59.50;;;;;;1558523;75;674;-71
2022/11/12 02:30:36;;;;;;;;;;;21.90;59.60;;;;;;1539044;75;1597;-72
2022/11/12 02:32:38;;;;;;;;;;;21.90;59.70;;;;;;1547087;75;664;-71
2022/11/12 02:34:40;;;;;;;;;;;21.90;59.70;;;;;;1550925;75;1931;-71
2022/11/12 02:36:42;;;;;;;;;;;21.90;59.80;;;;;;1542540;75;1136;-71
2022/11/12 02:38:43;;;;;;;;;;;21.90;59.80;;;;;;1543424;75;643;-73
2022/11/12 02:40:45;;;;;;;;;;;21.90;59.80;;;;;;1551448;75;648;-72
2022/11/12 02:42:47;;;;;;;;;;;21.80;59.70;;;;;;1560064;75;680;-68
2022/11/12 02:44:49;;;;;;;;;;;21.90;59.80;;;;;;1545945;74;1608;-71
2022/11/12 02:46:51;;;;;;;;;;;21.90;59.80;;;;;;1536987;75;1140;-70
2022/11/12 02:48:53;;;;;;;;;;;21.90;59.80;;;;;;1546684;75;686;-69
2022/11/12 02:50:55;;;;;;;;;;;22.00;59.70;;;;;;1550292;75;903;-69
2022/11/12 02:52:56;;;;;;;;;;;21.90;59.70;;;;;;1552779;75;680;-70
2022/11/12 02:54:58;;;;;;;;;;;22.00;59.60;;;;;;1550678;75;1952;-71
2022/11/12 02:57:00;;;;;;;;;;;21.90;59.60;;;;;;1558917;75;1542;-70
2022/11/12 02:59:02;;;;;;;;;;;21.90;59.60;;;;;;1535723;75;769;-70
2022/11/12 03:01:04;;;;;;;;;;;22.00;59.50;;;;;;1552020;75;666;-69
2022/11/12 03:03:06;;;;;;;;;;;21.90;59.60;;;;;;1551907;75;725;-70
2022/11/12 03:05:09;;;;;;;;;;;21.90;59.70;;;;;;1552604;75;695;-71
2022/11/12 03:07:11;;;;;;;;;;;21.90;59.70;;;;;;1543895;75;1166;-70
2022/11/12 03:09:13;;;;;;;;;;;21.90;59.60;;;;;;1548448;75;739;-71
2022/11/12 03:11:15;;;;;;;;;;;21.90;59.60;;;;;;1555535;74;1577;-70
2022/11/12 03:13:17;;;;;;;;;;;21.90;59.70;;;;;;1545736;76;767;-66
2022/11/12 03:15:19;;;;;;;;;;;21.90;59.70;;;;;;1549353;75;1948;-70
2022/11/12 03:17:21;;;;;;;;;;;21.90;59.80;;;;;;1551674;75;1133;-70
2022/11/12 03:19:23;;;;;;;;;;;21.90;59.80;;;;;;1550881;75;859;-71
2022/11/12 03:21:25;;;;;;;;;;;21.80;59.80;;;;;;1550526;75;777;-71
2022/11/12 03:23:27;;;;;;;;;;;21.80;59.80;;;;;;1550272;75;702;-73
2022/11/12 03:25:29;;;;;;;;;;;21.80;59.80;;;;;;1549615;75;1556;-70
2022/11/12 03:27:31;;;;;;;;;;;21.80;59.80;;;;;;1543847;75;1237;-70
2022/11/12 03:29:32;;;;;;;;;;;21.80;59.90;;;;;;1533454;75;694;-70
2022/11/12 03:31:34;;;;;;;;;;;21.80;59.90;;;;;;1548040;75;666;-70
2022/11/12 03:33:36;;;;;;;;;;;21.80;59.90;;;;;;1548127;75;713;-71
2022/11/12 03:35:38;;;;;;;;;;;21.80;59.80;;;;;;1551730;75;1923;-71
2022/11/12 03:37:40;;;;;;;;;;;21.80;59.70;;;;;;1551642;75;1141;-71
2022/11/12 03:39:42;;;;;;;;;;;21.80;59.70;;;;;;1555109;75;1555;-72
2022/11/12 03:41:44;;;;;;;;;;;21.90;59.70;;;;;;1548459;75;706;-69
2022/11/12 03:43:46;;;;;;;;;;;21.90;59.80;;;;;;1549091;76;669;-71
2022/11/12 03:45:47;;;;;;;;;;;21.90;59.70;;;;;;1554311;76;686;-71
2022/11/12 03:47:50;;;;;;;;;;;21.90;59.80;;;;;;1555330;75;1109;-71
2022/11/12 03:49:52;;;;;;;;;;;21.90;60.00;;;;;;1547276;75;700;-71
2022/11/12 03:51:54;;;;;;;;;;;21.90;60.00;;;;;;1558390;75;779;-69
2022/11/12 03:53:56;;;;;;;;;;;21.80;59.80;;;;;;1555852;75;1950;-72
2022/11/12 03:55:57;;;;;;;;;;;21.90;60.00;;;;;;1566430;75;843;-70
2022/11/12 03:57:59;;;;;;;;;;;21.90;60.00;;;;;;1551952;75;1066;-73
2022/11/12 04:00:01;;;;;;;;;;;21.90;59.80;;;;;;1548601;76;763;-70
2022/11/12 04:02:03;;;;;;;;;;;21.90;59.90;;;;;;1545017;76;679;-69
2022/11/12 04:04:05;;;;;;;;;;;21.80;59.90;;;;;;1548640;75;741;-70
2022/11/12 04:08:36;;;;;;;;;;;21.90;59.90;;;;;;1553152;75;1632;-69
2022/11/12 04:10:38;;;;;;;;;;;21.90;59.80;;;;;;1559722;75;665;-70
2022/11/12 04:15:00;;;;;;;;;;;21.80;59.80;;;;;;1541396;75;1885;-71
2022/11/12 04:21:50;;;;;;;;;;;21.80;59.70;;;;;;1548368;75;1666;-72
2022/11/12 04:23:52;;;;;;;;;;;21.90;59.80;;;;;;1554401;75;704;-70
2022/11/12 04:28:14;;;;;;;;;;;21.90;59.80;;;;;;1542264;76;1671;-71
2022/11/12 04:30:17;;;;;;;;;;;21.90;60.00;;;;;;1551422;75;748;-70
2022/11/12 04:32:19;;;;;;;;;;;21.80;59.80;;;;;;1554865;75;650;-70
2022/11/12 04:34:30;;;;;;;;;;;21.90;60.00;;;;;;1555977;76;1922;-71
2022/11/12 04:36:32;;;;;;;;;;;21.90;59.80;;;;;;1554304;74;1511;-71
2022/11/12 04:38:33;;;;;;;;;;;21.90;59.80;;;;;;1542746;75;643;-70
2022/11/12 04:45:15;;;;;;;;;;;21.90;59.70;;;;;;1551542;76;1642;-70
2022/11/12 04:47:17;;;;;;;;;;;21.90;59.80;;;;;;1550071;75;1174;-72
2022/11/12 04:49:19;;;;;;;;;;;21.90;59.90;;;;;;1542757;75;719;-71
2022/11/12 04:53:40;;;;;;;;;;;21.80;59.90;;;;;;1544736;75;1648;-71
2022/11/12 04:55:42;;;;;;;;;;;21.80;59.90;;;;;;1563308;75;1950;-73
2022/11/12 04:57:44;;;;;;;;;;;21.90;59.90;;;;;;1554407;75;1172;-72
2022/11/12 04:59:46;;;;;;;;;;;21.80;59.80;;;;;;1541324;75;796;-70
2022/11/12 05:01:48;;;;;;;;;;;21.80;60.00;;;;;;1555460;75;736;-71
2022/11/12 05:03:50;;;;;;;;;;;21.80;60.10;;;;;;1546907;76;1575;-71
2022/11/12 05:05:52;;;;;;;;;;;21.70;60.30;;;;;;1554936;75;710;-72
2022/11/12 05:07:53;;;;;;;;;;;21.80;60.30;;;;;;1542563;75;1156;-69
2022/11/12 05:09:55;;;;;;;;;;;21.70;60.40;;;;;;1554903;75;766;-71
2022/11/12 05:11:57;;;;;;;;;;;21.70;60.50;;;;;;1551149;75;664;-71
2022/11/12 05:13:59;;;;;;;;;;;21.70;60.60;;;;;;1552944;76;685;-71
2022/11/12 05:16:01;;;;;;;;;;;21.70;60.50;;;;;;1554098;76;1931;-72
2022/11/12 05:18:03;;;;;;;;;;;21.70;60.60;;;;;;1556529;74;1404;-69
2022/11/12 05:20:07;;;;;;;;;;;21.60;60.50;;;;;;1552998;75;696;-71
2022/11/12 05:22:11;;;;;;;;;;;21.60;60.60;;;;;;1552649;75;760;-72
2022/11/12 05:24:13;;;;;;;;;;;21.70;60.70;;;;;;1558645;75;710;-70
2022/11/12 05:26:15;;;;;;;;;;;21.70;60.70;;;;;;1550503;75;1259;-72
2022/11/12 05:28:17;;;;;;;;;;;21.60;60.50;;;;;;1550338;75;637;-70
2022/11/12 05:30:19;;;;;;;;;;;21.70;60.50;;;;;;1556047;75;671;-70
2022/11/12 05:32:21;;;;;;;;;;;21.70;60.50;;;;;;1550987;76;1376;-72
2022/11/12 05:34:22;;;;;;;;;;;21.70;60.70;;;;;;1551163;76;686;-71
2022/11/12 05:36:24;;;;;;;;;;;21.70;60.60;;;;;;1540449;75;1932;-72
2022/11/12 05:38:26;;;;;;;;;;;21.60;60.80;;;;;;1549892;75;695;-69
2022/11/12 05:40:28;;;;;;;;;;;21.60;60.70;;;;;;1552290;75;820;-69
2022/11/12 05:42:30;;;;;;;;;;;21.70;60.90;;;;;;1554246;75;701;-70
2022/11/12 05:44:32;;;;;;;;;;;21.60;60.90;;;;;;1549257;75;684;-69
2022/11/12 05:46:34;;;;;;;;;;;21.80;60.60;;;;;;1557676;74;1239;-69
2022/11/12 05:48:36;;;;;;;;;;;21.80;60.30;;;;;;1550179;75;711;-70
2022/11/12 05:50:37;;;;;;;;;;;21.70;60.20;;;;;;1543846;75;741;-70
2022/11/12 05:52:39;;;;;;;;;;;21.80;60.10;;;;;;1554638;75;647;-69
2022/11/12 05:54:41;;;;;;;;;;;21.90;60.00;;;;;;1542399;75;1936;-70
2022/11/12 05:56:43;;;;;;;;;;;22.00;59.80;;;;;;1541695;75;1179;-70
2022/11/12 05:58:45;;;;;;;;;;;22.00;59.80;;;;;;1539994;75;893;-70
2022/11/12 06:00:47;;;;;;;;;;;22.00;59.70;;;;;;1536281;75;1515;-71
2022/11/12 06:02:49;;;;;;;;;;;22.00;59.90;;;;;;1537932;75;662;-68
2022/11/12 06:04:51;;;;;;;;;;;21.80;60.10;;;;;;1538915;75;656;-70
2022/11/12 06:06:53;;;;;;;;;;;21.80;60.20;;;;;;1544047;75;1161;-68
2022/11/12 06:08:54;;;;;;;;;;;21.90;60.10;;;;;;1547469;74;707;-70
2022/11/12 06:10:56;;;;;;;;;;;22.00;59.80;;;;;;1550901;76;706;-71
2022/11/12 06:12:58;;;;;;;;;;;21.90;60.10;;;;;;1546257;75;658;-68
2022/11/12 06:15:00;;;;;;;;;;;21.80;60.10;;;;;;1548630;75;1946;-70
2022/11/12 06:17:02;;;;;;;;;;;21.80;60.20;;;;;;1552812;75;1163;-67
2022/11/12 06:19:04;;;;;;;;;;;21.80;60.30;;;;;;1557723;75;753;-66
2022/11/12 06:21:21;;;;;;;;;;;21.90;59.90;;;;;;1553179;76;776;-67
2022/11/12 06:23:23;;;;;;;;;;;22.00;59.40;;;;;;1554212;75;773;-68
2022/11/12 06:25:25;;;;;;;;;;;22.00;59.10;;;;;;1549674;75;691;-68
2022/11/12 06:27:27;;;;;;;;;;;22.10;59.00;;;;;;1554946;75;1140;-67
2022/11/12 06:29:29;;;;;;;;;;;22.10;58.80;;;;;;1558674;75;1583;-64
2022/11/12 06:31:30;;;;;;;;;;;22.10;58.40;;;;;;1552959;74;737;-68
2022/11/12 06:33:32;;;;;;;;;;;22.10;58.20;;;;;;1550925;76;783;-66
2022/11/12 06:35:34;;;;;;;;;;;22.10;58.10;;;;;;1552333;76;1954;-67
2022/11/12 06:37:36;;;;;;;;;;;22.10;58.00;;;;;;1567337;73;1264;-68
2022/11/12 06:39:38;;;;;;;;;;;22.10;58.00;;;;;;1549230;75;748;-67
2022/11/12 06:41:40;;;;;;;;;;;22.10;57.90;;;;;;1551604;76;681;-66
2022/11/12 06:43:42;;;;;;;;;;;22.10;57.80;;;;;;1555911;75;1560;-66
2022/11/12 06:45:43;;;;;;;;;;;22.10;57.90;;;;;;1552929;76;769;-66
2022/11/12 06:47:45;;;;;;;;;;;22.20;57.80;;;;;;1553411;75;1147;-66
2022/11/12 06:49:47;;;;;;;;;;;22.10;57.70;;;;;;1555722;75;709;-68
2022/11/12 06:51:52;;;;;;;;;;;22.10;57.80;;;;;;1554181;75;591;-67
2022/11/12 06:53:54;;;;;;;;;;;22.20;57.80;;;;;;1553634;75;726;-67
2022/11/12 06:55:57;;;;;;;;;;;22.10;57.80;;;;;;1528943;76;1933;-67
2022/11/12 06:57:59;;;;;;;;;;;22.10;57.60;;;;;;1542689;71;2708;-62
2022/11/12 07:00:01;;;;;;;;;;;22.10;57.70;;;;;;1554113;76;704;-63
2022/11/12 07:02:04;;;;;;;;;;;22.10;57.80;;;;;;1555477;75;536;-63
2022/11/12 07:04:06;;;;;;;;;;;22.10;57.70;;;;;;1553897;75;679;-63
2022/11/12 07:06:09;;;;;;;;;;;22.10;57.60;;;;;;1561965;75;743;-63
2022/11/12 07:08:10;;;;;;;;;;;22.10;57.60;;;;;;1545332;75;1200;-63
2022/11/12 07:10:12;;;;;;;;;;;22.10;57.60;;;;;;1548868;76;1487;-63
2022/11/12 07:12:14;;;;;;;;;;;22.10;57.60;;;;;;1550859;76;665;-62
2022/11/12 07:14:16;;;;;;;;;;;22.10;57.60;;;;;;1551838;76;653;-62
2022/11/12 07:16:18;;;;;;;;;;;22.10;57.60;;;;;;1552095;76;1924;-62
2022/11/12 07:18:20;;;;;;;;;;;22.10;57.50;;;;;;1544874;75;1106;-63
2022/11/12 07:20:22;;;;;;;;;;;22.20;57.60;;;;;;1552563;75;691;-63
2022/11/12 07:22:24;;;;;;;;;;;22.10;57.50;;;;;;1551160;75;738;-62
2022/11/12 07:24:26;;;;;;;;;;;22.20;57.60;;;;;;1541838;75;1434;-63
2022/11/12 07:26:28;;;;;;;;;;;22.10;57.60;;;;;;1551884;76;723;-63
2022/11/12 07:28:29;;;;;;;;;;;22.10;57.50;;;;;;1549166;75;1140;-63
2022/11/12 07:30:31;;;;;;;;;;;22.10;57.50;;;;;;1543999;76;702;-63
2022/11/12 07:32:33;;;;;;;;;;;22.10;57.50;;;;;;1550411;76;709;-63
2022/11/12 07:34:35;;;;;;;;;;;22.20;57.50;;;;;;1550390;76;903;-63
2022/11/12 07:36:37;;;;;;;;;;;22.10;57.50;;;;;;1549719;75;1943;-63
2022/11/12 07:38:39;;;;;;;;;;;22.10;57.40;;;;;;1549523;76;1459;-63
2022/11/12 07:40:41;;;;;;;;;;;22.10;57.40;;;;;;1552805;76;712;-63
2022/11/12 07:42:43;;;;;;;;;;;22.10;57.40;;;;;;1551609;76;735;-63
2022/11/12 07:44:45;;;;;;;;;;;22.10;57.50;;;;;;1549499;76;694;-62
2022/11/12 07:46:46;;;;;;;;;;;22.10;57.50;;;;;;1549739;75;1144;-63
2022/11/12 07:48:48;;;;;;;;;;;22.10;57.40;;;;;;1546321;75;1074;-63
2022/11/12 07:50:50;;;;;;;;;;;22.10;57.40;;;;;;1541937;75;691;-63
2022/11/12 07:52:52;;;;;;;;;;;22.10;57.40;;;;;;1549411;76;1378;-62
2022/11/12 07:54:54;;;;;;;;;;;22.10;57.40;;;;;;1549846;76;616;-62
2022/11/12 07:56:56;;;;;;;;;;;22.10;57.40;;;;;;1550474;75;1907;-62
2022/11/12 07:58:58;;;;;;;;;;;22.20;57.40;;;;;;1549384;76;781;-62
2022/11/12 08:01:09;;;;;;;;;;;22.10;57.40;;;;;;1549960;76;665;-62
2022/11/12 08:03:11;;;;;;;;;;;22.10;57.40;;;;;;1550428;76;982;-63
2022/11/12 08:05:13;;;;;;;;;;;22.10;57.40;;;;;;1550038;75;651;-63
2022/11/12 08:07:15;;;;;;;;;;;22.10;57.40;;;;;;1540602;76;1471;-63
2022/11/12 08:09:17;;;;;;;;;;;22.10;57.40;;;;;;1550030;76;664;-64
2022/11/12 08:11:19;;;;;;;;;;;22.10;57.40;;;;;;1549560;76;783;-63
2022/11/12 08:13:21;;;;;;;;;;;22.10;57.40;;;;;;1550327;76;730;-63
2022/11/12 08:15:23;;;;;;;;;;;22.10;57.40;;;;;;1551550;76;621;-64
2022/11/12 08:17:25;;;;;;;;;;;22.10;57.40;;;;;;1546794;75;1993;-63
2022/11/12 08:19:27;;;;;;;;;;;22.10;57.40;;;;;;1555729;75;741;-63
2022/11/12 08:21:28;;;;;;;;;;;22.10;57.40;;;;;;1543636;76;1463;-64
2022/11/12 08:23:30;;;;;;;;;;;22.10;57.40;;;;;;1551352;76;749;-63
2022/11/12 08:25:32;;;;;;;;;;;22.10;57.40;;;;;;1550551;76;648;-63
2022/11/12 08:27:34;;;;;;;;;;;22.10;57.50;;;;;;1551086;75;1125;-64
2022/11/12 08:29:36;;;;;;;;;;;22.10;57.50;;;;;;1544312;76;738;-63
2022/11/12 08:31:38;;;;;;;;;;;22.10;57.50;;;;;;1537095;75;686;-63
2022/11/12 08:33:40;;;;;;;;;;;22.10;57.50;;;;;;1547513;75;700;-63
2022/11/12 08:35:42;;;;;;;;;;;22.10;57.60;;;;;;1548549;76;1939;-63
2022/11/12 08:37:44;;;;;;;;;;;22.10;57.60;;;;;;1539149;75;1174;-62
2022/11/12 08:39:46;;;;;;;;;;;22.10;57.60;;;;;;1545412;76;691;-62
2022/11/12 08:41:48;;;;;;;;;;;22.10;57.50;;;;;;1550343;76;649;-62
2022/11/12 08:43:49;;;;;;;;;;;22.10;57.60;;;;;;1548613;76;607;-63
2022/11/12 08:45:51;;;;;;;;;;;22.10;57.60;;;;;;1546178;76;759;-63
2022/11/12 08:47:53;;;;;;;;;;;22.10;57.60;;;;;;1547988;75;1138;-62
2022/11/12 08:49:55;;;;;;;;;;;22.10;57.60;;;;;;1541128;76;1616;-62
2022/11/12 08:51:57;;;;;;;;;;;22.00;57.60;;;;;;1540322;76;735;-63
2022/11/12 08:53:59;;;;;;;;;;;22.10;57.70;;;;;;1533735;76;656;-63
2022/11/12 08:56:01;;;;;;;;;;;22.00;57.60;;;;;;1549662;76;1939;-63
2022/11/12 08:58:03;;;;;;;;;;;22.10;57.70;;;;;;1552164;75;1125;-63
2022/11/12 09:00:05;;;;;;;;;;;22.10;57.70;;;;;;1549089;76;625;-62
2022/11/12 09:02:09;;;;;;;;;;;22.10;57.60;;;;;;1550199;75;669;-64
2022/11/12 09:04:10;;;;;;;;;;;22.10;57.70;;;;;;1554330;76;1584;-63
2022/11/12 09:06:12;;;;;;;;;;;22.10;57.70;;;;;;1551874;76;708;-63
2022/11/12 09:08:15;;;;;;;;;;;22.10;57.80;;;;;;1549816;75;1128;-62
2022/11/12 09:10:17;;;;;;;;;;;22.10;57.80;;;;;;1543318;76;686;-63
2022/11/12 09:12:19;;;;;;;;;;;22.20;57.80;;;;;;1550745;76;738;-62
2022/11/12 09:14:21;;;;;;;;;;;22.10;57.80;;;;;;1551043;76;720;-63
2022/11/12 09:16:23;;;;;;;;;;;22.10;58.00;;;;;;1533437;76;1937;-63
2022/11/12 09:18:25;;;;;;;;;;;22.10;58.20;;;;;;1550498;75;1609;-63
2022/11/12 09:20:27;;;;;;;;;;;22.10;58.70;;;;;;1550799;76;631;-63
2022/11/12 09:22:31;;;;;;;;;;;22.10;59.10;;;;;;1548270;76;676;-63
2022/11/12 09:24:32;;;;;;;;;;;22.00;59.40;;;;;;1540481;76;681;-64
2022/11/12 09:26:34;;;;;;;;;;;21.90;60.20;;;;;;1545479;75;1145;-64
2022/11/12 09:28:36;;;;;;;;;;;21.90;60.40;;;;;;1549922;76;750;-65
2022/11/12 09:30:40;;;;;;;;;;;21.90;60.80;;;;;;1549509;76;751;-63
2022/11/12 09:32:42;;;;;;;;;;;21.90;60.90;;;;;;1546057;75;1560;-62
2022/11/12 09:34:43;;;;;;;;;;;21.90;60.70;;;;;;1551634;75;714;-62
2022/11/12 09:36:45;;;;;;;;;;;22.00;60.70;;;;;;1549954;75;1952;-63
2022/11/12 09:38:47;;;;;;;;;;;22.10;60.40;;;;;;1547360;76;669;-63
2022/11/12 09:40:54;;;;;;;;;;;22.10;60.40;;;;;;1538690;76;661;-64
2022/11/12 09:42:55;;;;;;;;;;;22.10;60.20;;;;;;1540034;76;626;-64
2022/11/12 09:45:02;;;;;;;;;;;22.00;60.20;;;;;;1550350;76;1476;-63
2022/11/12 09:47:08;;;;;;;;;;;22.10;60.20;;;;;;1548947;75;1128;-64
2022/11/12 09:49:20;;;;;;;;;;;22.10;60.10;;;;;;1547041;76;729;-63
2022/11/12 09:51:29;;;;;;;;;;;22.20;59.90;;;;;;1544738;76;696;-63
2022/11/12 09:53:32;;;;;;;;;;;22.10;59.70;;;;;;1550729;76;630;-63
2022/11/12 09:55:36;;;;;;;;;;;22.20;59.60;;;;;;1550737;76;568;-63
2022/11/12 09:57:38;;;;;;;;;;;22.20;59.50;;;;;;1548161;75;1927;-63
2022/11/12 09:59:40;;;;;;;;;;;22.20;59.40;;;;;;1549272;76;1449;-63
2022/11/12 10:01:52;;;;;;;;;;;22.20;59.30;;;;;;1549594;76;638;-63
2022/11/12 10:04:04;;;;;;;;;;;22.20;59.30;;;;;;1551944;76;669;-63
2022/11/12 10:06:14;;;;;;;;;;;22.30;59.50;;;;;;1546428;76;1789;-63
2022/11/12 10:08:20;;;;;;;;;;;22.20;59.30;;;;;;1547460;75;1149;-64
2022/11/12 10:10:40;;;;;;;;;;;22.20;59.20;;;;;;1552304;76;1586;-63
2022/11/12 10:12:49;;;;;;;;;;;22.20;59.30;;;;;;1554034;76;665;-66
2022/11/12 10:16:41;;;;;;;;;;;22.20;59.10;;;;;;1549383;76;1526;-64
2022/11/12 10:17:07;;;;;;;;;;;22.10;59.00;;;;;;1547274;75;1904;-65
2022/11/12 10:19:10;;;;;;;;;;;22.00;59.50;;;;;;1545073;76;648;-66
2022/11/12 10:21:14;;;;;;;;;;;22.00;59.80;;;;;;1548137;76;741;-68
2022/11/12 10:23:17;;;;;;;;;;;22.00;59.70;;;;;;1550309;76;625;-66
2022/11/12 10:25:19;;;;;;;;;;;22.10;59.60;;;;;;1549774;76;595;-65
2022/11/12 10:27:21;;;;;;;;;;;22.10;59.50;;;;;;1550701;75;1493;-64
2022/11/12 10:29:25;;;;;;;;;;;22.10;59.30;;;;;;1550198;76;703;-62
2022/11/12 10:31:27;;;;;;;;;;;22.10;59.20;;;;;;1554981;75;1689;-61
2022/11/12 10:33:29;;;;;;;;;;;22.00;59.40;;;;;;1552524;76;819;-65
2022/11/12 10:35:31;;;;;;;;;;;22.00;59.30;;;;;;1551767;76;723;-67
2022/11/12 10:37:35;;;;;;;;;;;22.00;59.50;;;;;;1547870;75;1927;-65
2022/11/12 10:39:37;;;;;;;;;;;22.00;59.60;;;;;;1553330;76;708;-64
2022/11/12 10:41:39;;;;;;;;;;;21.90;59.50;;;;;;1550797;76;1455;-65
2022/11/12 10:43:42;;;;;;;;;;;22.00;59.20;;;;;;1541396;76;696;-65
2022/11/12 10:45:44;;;;;;;;;;;22.10;59.10;;;;;;1525479;76;1201;-65
2022/11/12 10:47:46;;;;;;;;;;;22.20;58.80;;;;;;1543977;75;1136;-65
2022/11/12 10:49:50;;;;;;;;;;;22.20;58.70;;;;;;1551275;76;672;-65
2022/11/12 10:51:55;;;;;;;;;;;22.20;58.40;;;;;;1509875;76;1058;-65
2022/11/12 10:53:57;;;;;;;;;;;22.20;58.30;;;;;;1544095;76;979;-64
2022/11/12 10:56:00;;;;;;;;;;;22.20;58.30;;;;;;1545332;76;1472;-64
2022/11/12 10:58:06;;;;;;;;;;;22.20;58.30;;;;;;1539763;75;1915;-65
2022/11/12 11:00:17;;;;;;;;;;;22.20;58.30;;;;;;1547127;75;785;-65
2022/11/12 11:02:18;;;;;;;;;;;22.10;58.20;;;;;;1554042;76;873;-65
2022/11/12 11:04:31;;;;;;;;;;;22.10;58.30;;;;;;1549752;76;575;-65
2022/11/12 11:06:33;;;;;;;;;;;22.20;58.20;;;;;;1548897;75;1179;-65
2022/11/12 11:08:38;;;;;;;;;;;22.20;58.10;;;;;;1544681;76;678;-65
2022/11/12 11:10:40;;;;;;;;;;;22.20;58.10;;;;;;1540063;76;1517;-63
2022/11/12 11:12:42;;;;;;;;;;;22.20;58.00;;;;;;1551084;76;654;-64
2022/11/12 11:14:44;;;;;;;;;;;22.20;57.90;;;;;;1554176;75;653;-64
2022/11/12 11:16:53;;;;;;;;;;;22.10;57.90;;;;;;1540818;75;1930;-64
2022/11/12 11:18:59;;;;;;;;;;;22.10;58.00;;;;;;1545525;76;693;-64
2022/11/12 11:21:14;;;;;;;;;;;22.20;58.00;;;;;;1548030;76;559;-64
2022/11/12 11:23:20;;;;;;;;;;;22.20;57.90;;;;;;1548703;76;1685;-64
2022/11/12 11:25:26;;;;;;;;;;;22.10;58.00;;;;;;1543672;76;773;-62
2022/11/12 11:27:34;;;;;;;;;;;22.10;58.00;;;;;;1551005;75;1250;-64
2022/11/12 11:29:43;;;;;;;;;;;22.10;57.90;;;;;;1547066;75;974;-64
2022/11/12 11:31:53;;;;;;;;;;;22.20;57.80;;;;;;1552315;76;1680;-64
2022/11/12 11:33:59;;;;;;;;;;;22.20;57.90;;;;;;1537288;76;1830;-64
2022/11/12 11:36:15;;;;;;;;;;;22.10;57.80;;;;;;1542430;76;1081;-64
2022/11/12 11:38:34;;;;;;;;;;;22.10;57.80;;;;;;1552113;76;1955;-64
2022/11/12 11:40:37;;;;;;;;;;;22.10;57.90;;;;;;1506860;78;1227;-64
2022/11/12 11:42:59;;;;;;;;;;;22.10;57.90;;;;;;1517076;75;974;-64
2022/11/12 11:45:09;;;;;;;;;;;22.00;57.80;;;;;;1543920;76;740;-64
2022/11/12 11:47:12;;;;;;;;;;;22.10;58.00;;;;;;1545986;75;1157;-65
2022/11/12 11:49:25;;;;;;;;;;;22.00;57.80;;;;;;1550429;76;977;-64
2022/11/12 11:51:34;;;;;;;;;;;22.10;57.90;;;;;;1539781;76;1384;-65
2022/11/12 11:53:40;;;;;;;;;;;22.10;57.80;;;;;;1518898;76;973;-64
2022/11/12 11:55:44;;;;;;;;;;;22.10;57.80;;;;;;1539336;76;1573;-65
2022/11/12 11:58:00;;;;;;;;;;;22.10;57.80;;;;;;1555222;75;1949;-65
2022/11/12 12:00:12;;;;;;;;;;;22.10;57.80;;;;;;1549366;76;691;-65
2022/11/12 12:02:18;;;;;;;;;;;22.10;57.80;;;;;;1544965;76;1804;-65
2022/11/12 12:04:25;;;;;;;;;;;22.10;57.80;;;;;;1542166;76;568;-65
2022/11/12 12:06:28;;;;;;;;;;;22.10;57.70;;;;;;1544137;76;1362;-64
2022/11/12 12:08:34;;;;;;;;;;;22.20;57.70;;;;;;1538378;76;1866;-64
2022/11/12 12:10:47;;;;;;;;;;;22.10;57.60;;;;;;1531094;76;1938;-64
2022/11/12 12:12:51;;;;;;;;;;;22.10;57.60;;;;;;1554133;75;1026;-65
2022/11/12 12:14:55;;;;;;;;;;;22.10;57.60;;;;;;1547361;76;670;-65
2022/11/12 12:17:13;;;;;;;;;;;22.10;57.60;;;;;;1550910;75;1959;-65
2022/11/12 12:19:17;;;;;;;;;;;22.10;57.50;;;;;;1549721;76;683;-64
2022/11/12 12:21:19;;;;;;;;;;;22.10;57.60;;;;;;1545458;76;1572;-64
2022/11/12 12:23:32;;;;;;;;;;;22.10;57.60;;;;;;1545647;75;689;-64
2022/11/12 12:25:38;;;;;;;;;;;22.10;57.50;;;;;;1544915;76;675;-65
2022/11/12 12:27:42;;;;;;;;;;;22.10;57.40;;;;;;1549835;75;1196;-65
2022/11/12 12:29:48;;;;;;;;;;;22.10;57.50;;;;;;1548385;76;975;-65
2022/11/12 12:31:51;;;;;;;;;;;22.10;57.40;;;;;;1553990;76;1966;-64
2022/11/12 12:33:54;;;;;;;;;;;22.10;57.40;;;;;;1546364;76;1476;-63